createdAt,value
2016-08-10T00:00:44.641Z,0
2016-08-10T00:01:43.055Z,0
2016-08-10T00:02:43.191Z,0
2016-08-10T00:03:42.993Z,0
2016-08-10T00:04:42.994Z,0
2016-08-10T00:06:44.532Z,0
2016-08-10T00:07:43.385Z,0
2016-08-10T00:08:43.905Z,0
2016-08-10T00:09:44.016Z,0
2016-08-10T00:10:42.965Z,0
2016-08-10T00:11:43.381Z,0
2016-08-10T00:12:43.077Z,0
2016-08-10T00:13:42.967Z,0
2016-08-10T00:14:42.960Z,0
2016-08-10T00:15:42.945Z,0
2016-08-10T00:16:42.941Z,0
2016-08-10T00:17:42.941Z,0
2016-08-10T00:18:42.940Z,0
2016-08-10T00:20:42.923Z,0
2016-08-10T00:21:42.927Z,0
2016-08-10T00:22:42.925Z,0
2016-08-10T00:23:42.917Z,0
2016-08-10T00:24:42.923Z,0
2016-08-10T00:25:42.910Z,0
2016-08-10T00:26:42.908Z,0
2016-08-10T00:27:42.923Z,0
2016-08-10T00:28:42.898Z,0
2016-08-10T00:29:42.903Z,0
2016-08-10T00:30:42.894Z,0
2016-08-10T00:31:42.897Z,0
2016-08-10T00:32:42.883Z,0
2016-08-10T00:33:42.885Z,0
2016-08-10T00:34:42.879Z,0
2016-08-10T00:35:42.895Z,0
2016-08-10T00:36:42.878Z,0
2016-08-10T00:38:43.572Z,0
2016-08-10T00:39:42.868Z,0
2016-08-10T00:40:42.862Z,0
2016-08-10T00:41:42.866Z,0
2016-08-10T00:43:45.885Z,0
2016-08-10T00:44:43.245Z,0
2016-08-10T00:45:44.755Z,0
2016-08-10T00:46:45.562Z,0
2016-08-10T00:47:44.354Z,0
2016-08-10T00:48:42.825Z,0
2016-08-10T00:49:42.831Z,0
2016-08-10T00:50:42.816Z,0
2016-08-10T00:51:42.809Z,0
2016-08-10T00:52:42.825Z,0
2016-08-10T00:54:58.368Z,0
2016-08-10T00:56:42.803Z,0
2016-08-10T00:57:43.549Z,0
2016-08-10T00:58:43.634Z,0
2016-08-10T00:59:42.784Z,0
2016-08-10T01:00:42.788Z,0
2016-08-10T01:01:42.788Z,0
2016-08-10T01:02:43.977Z,0
2016-08-10T01:05:57.707Z,0
2016-08-10T01:06:58.244Z,0
2016-08-10T01:08:42.754Z,0
2016-08-10T01:09:42.743Z,0
2016-08-10T01:10:43.445Z,0
2016-08-10T01:11:43.542Z,0
2016-08-10T01:12:42.741Z,0
2016-08-10T01:13:42.729Z,0
2016-08-10T01:14:44.244Z,0
2016-08-10T01:15:45.787Z,0
2016-08-10T01:16:44.979Z,0
2016-08-10T01:17:43.605Z,0
2016-08-10T01:18:42.987Z,0
2016-08-10T01:19:42.706Z,0
2016-08-10T01:20:42.998Z,0
2016-08-10T01:21:43.185Z,0
2016-08-10T01:23:42.691Z,0
2016-08-10T01:24:44.019Z,0
2016-08-10T01:25:43.408Z,0
2016-08-10T01:26:44.606Z,0
2016-08-10T01:27:42.683Z,0
2016-08-10T01:28:42.679Z,0
2016-08-10T01:29:43.182Z,0
2016-08-10T01:30:42.664Z,0
2016-08-10T01:31:42.676Z,0
2016-08-10T01:32:42.670Z,0
2016-08-10T01:33:42.670Z,0
2016-08-10T01:34:42.657Z,0
2016-08-10T01:35:42.650Z,0
2016-08-10T01:36:42.648Z,0
2016-08-10T01:37:42.646Z,0
2016-08-10T01:38:42.635Z,0
2016-08-10T01:39:42.638Z,0
2016-08-10T01:40:42.635Z,0
2016-08-10T01:41:42.644Z,0
2016-08-10T01:42:42.614Z,0
2016-08-10T01:43:42.639Z,0
2016-08-10T01:44:42.622Z,0
2016-08-10T01:45:43.306Z,0
2016-08-10T01:46:42.609Z,0
2016-08-10T01:47:42.606Z,0
2016-08-10T01:48:42.594Z,0
2016-08-10T01:49:42.603Z,0
2016-08-10T01:50:42.591Z,0
2016-08-10T01:51:42.609Z,0
2016-08-10T01:52:42.587Z,0
2016-08-10T01:53:42.587Z,0
2016-08-10T01:54:42.576Z,0
2016-08-10T01:55:42.569Z,0
2016-08-10T01:56:42.564Z,0
2016-08-10T01:57:42.565Z,0
2016-08-10T01:58:42.565Z,0
2016-08-10T01:59:42.560Z,0
2016-08-10T02:00:43.252Z,0
2016-08-10T02:01:42.551Z,0
2016-08-10T02:02:42.552Z,0
2016-08-10T02:03:42.546Z,0
2016-08-10T02:04:42.535Z,0
2016-08-10T02:05:42.535Z,0
2016-08-10T02:06:42.529Z,0
2016-08-10T02:07:42.578Z,0
2016-08-10T02:08:42.520Z,0
2016-08-10T02:09:42.521Z,0
2016-08-10T02:10:42.510Z,0
2016-08-10T02:11:42.508Z,0
2016-08-10T02:12:57.872Z,0
2016-08-10T02:13:42.901Z,0
2016-08-10T02:14:42.649Z,0
2016-08-10T02:16:43.054Z,0
2016-08-10T02:17:42.490Z,0
2016-08-10T02:18:42.488Z,0
2016-08-10T02:19:42.471Z,0
2016-08-10T02:20:42.463Z,0
2016-08-10T02:21:58.184Z,0
2016-08-10T02:22:43.613Z,0
2016-08-10T02:23:42.458Z,0
2016-08-10T02:26:42.446Z,0
2016-08-10T02:27:42.443Z,0
2016-08-10T02:28:42.440Z,0
2016-08-10T02:29:42.438Z,0
2016-08-10T02:30:42.427Z,0
2016-08-10T02:31:42.422Z,0
2016-08-10T02:32:42.417Z,0
2016-08-10T02:34:44.716Z,0
2016-08-10T02:35:44.073Z,0
2016-08-10T02:36:44.017Z,0
2016-08-10T02:37:43.687Z,0
2016-08-10T02:38:42.983Z,0
2016-08-10T02:39:42.401Z,0
2016-08-10T02:40:42.391Z,0
2016-08-10T02:41:42.393Z,0
2016-08-10T02:42:42.981Z,0
2016-08-10T02:43:43.150Z,0
2016-08-10T02:44:45.128Z,0
2016-08-10T02:45:43.438Z,0
2016-08-10T02:46:43.564Z,0
2016-08-10T02:47:43.154Z,0
2016-08-10T02:48:42.354Z,0
2016-08-10T02:49:42.350Z,0
2016-08-10T02:50:42.349Z,0
2016-08-10T02:51:42.347Z,0
2016-08-10T02:52:42.344Z,0
2016-08-10T02:53:42.334Z,0
2016-08-10T02:54:43.030Z,0
2016-08-10T02:55:42.334Z,0
2016-08-10T02:56:42.332Z,0
2016-08-10T02:57:42.329Z,0
2016-08-10T02:58:42.316Z,0
2016-08-10T02:59:42.312Z,0
2016-08-10T03:00:42.315Z,0
2016-08-10T03:01:42.303Z,0
2016-08-10T03:02:42.304Z,0
2016-08-10T03:03:42.305Z,0
2016-08-10T03:04:42.297Z,0
2016-08-10T03:05:42.284Z,0
2016-08-10T03:06:42.284Z,0
2016-08-10T03:07:42.289Z,0
2016-08-10T03:08:42.280Z,4
2016-08-10T03:09:42.274Z,4
2016-08-10T03:10:42.271Z,0
2016-08-10T03:11:42.262Z,4
2016-08-10T03:12:42.253Z,4
2016-08-10T03:13:42.260Z,4
2016-08-10T03:14:42.246Z,4
2016-08-10T03:15:42.247Z,4
2016-08-10T03:16:42.242Z,8
2016-08-10T03:17:42.244Z,8
2016-08-10T03:18:42.231Z,12
2016-08-10T03:19:42.927Z,12
2016-08-10T03:20:42.237Z,16
2016-08-10T03:21:42.226Z,20
2016-08-10T03:22:42.223Z,24
2016-08-10T03:23:42.210Z,24
2016-08-10T03:24:42.209Z,32
2016-08-10T03:25:42.196Z,36
2016-08-10T03:26:42.198Z,40
2016-08-10T03:27:42.201Z,44
2016-08-10T03:28:42.203Z,48
2016-08-10T03:29:42.191Z,56
2016-08-10T03:30:43.796Z,60
2016-08-10T03:32:42.424Z,72
2016-08-10T03:33:42.175Z,80
2016-08-10T03:34:42.160Z,88
2016-08-10T03:35:42.165Z,96
2016-08-10T03:36:42.613Z,108
2016-08-10T03:37:42.161Z,120
2016-08-10T03:38:42.157Z,132
2016-08-10T03:39:57.512Z,156
2016-08-10T03:40:57.204Z,172
2016-08-10T03:41:42.434Z,184
2016-08-10T03:42:42.130Z,204
2016-08-10T03:43:42.128Z,220
2016-08-10T03:44:42.178Z,236
2016-08-10T03:45:42.115Z,256
2016-08-10T03:46:42.110Z,272
2016-08-10T03:47:42.157Z,292
2016-08-10T03:48:42.101Z,312
2016-08-10T03:49:42.101Z,332
2016-08-10T03:50:42.101Z,348
2016-08-10T03:51:43.663Z,364
2016-08-10T03:52:44.431Z,380
2016-08-10T03:53:44.402Z,396
2016-08-10T03:54:42.888Z,412
2016-08-10T03:55:43.178Z,432
2016-08-10T03:56:42.507Z,460
2016-08-10T03:57:42.064Z,496
2016-08-10T03:58:42.055Z,532
2016-08-10T03:59:42.059Z,560
2016-08-10T04:01:42.841Z,620
2016-08-10T04:02:43.493Z,648
2016-08-10T04:03:42.388Z,684
2016-08-10T04:04:43.032Z,716
2016-08-10T04:05:42.717Z,752
2016-08-10T04:06:42.067Z,796
2016-08-10T04:07:42.026Z,836
2016-08-10T04:08:42.031Z,880
2016-08-10T04:09:42.013Z,936
2016-08-10T04:10:42.016Z,1004
2016-08-10T04:11:42.001Z,1084
2016-08-10T04:12:42.002Z,1188
2016-08-10T04:13:42.002Z,1308
2016-08-10T04:14:41.992Z,1408
2016-08-10T04:15:41.991Z,1496
2016-08-10T04:16:41.986Z,1588
2016-08-10T04:17:41.978Z,1684
2016-08-10T04:18:41.970Z,1776
2016-08-10T04:19:41.968Z,1892
2016-08-10T04:20:41.966Z,2032
2016-08-10T04:21:41.961Z,2176
2016-08-10T04:23:41.963Z,2472
2016-08-10T04:24:43.560Z,2604
2016-08-10T04:26:41.938Z,2820
2016-08-10T04:27:43.659Z,2948
2016-08-10T04:28:41.929Z,3064
2016-08-10T04:29:41.925Z,3188
2016-08-10T04:30:41.925Z,3280
2016-08-10T04:31:41.926Z,3400
2016-08-10T04:32:41.914Z,3484
2016-08-10T04:33:41.902Z,3508
2016-08-10T04:34:41.906Z,3528
2016-08-10T04:35:41.907Z,3556
2016-08-10T04:36:41.899Z,3532
2016-08-10T04:37:41.898Z,3532
2016-08-10T04:38:41.893Z,3548
2016-08-10T04:39:41.886Z,3536
2016-08-10T04:40:42.578Z,3552
2016-08-10T04:41:41.878Z,3648
2016-08-10T04:42:41.877Z,3828
2016-08-10T04:43:41.875Z,4072
2016-08-10T04:44:41.863Z,4240
2016-08-10T04:45:41.862Z,4404
2016-08-10T04:46:41.867Z,4632
2016-08-10T04:47:41.855Z,4844
2016-08-10T04:49:42.043Z,5112
2016-08-10T04:50:58.204Z,5256
2016-08-10T04:51:42.453Z,5336
2016-08-10T04:52:41.842Z,5396
2016-08-10T04:54:41.824Z,5212
2016-08-10T04:55:42.019Z,5072
2016-08-10T04:56:41.816Z,4944
2016-08-10T04:57:43.166Z,4788
2016-08-10T04:59:57.331Z,4500
2016-08-10T05:00:56.720Z,4484
2016-08-10T05:01:41.909Z,4484
2016-08-10T05:02:42.051Z,4536
2016-08-10T05:03:41.840Z,4700
2016-08-10T05:04:41.791Z,4808
2016-08-10T05:05:41.782Z,4792
2016-08-10T05:06:41.784Z,4764
2016-08-10T05:07:41.786Z,4656
2016-08-10T05:08:41.859Z,4372
2016-08-10T05:09:43.185Z,4080
2016-08-10T05:10:44.150Z,4024
2016-08-10T05:11:41.797Z,4180
2016-08-10T05:12:41.761Z,4360
2016-08-10T05:13:42.388Z,4504
2016-08-10T05:14:42.927Z,4604
2016-08-10T05:15:42.333Z,4704
2016-08-10T05:16:41.752Z,4772
2016-08-10T05:17:41.747Z,4860
2016-08-10T05:19:42.774Z,5092
2016-08-10T05:20:44.153Z,5244
2016-08-10T05:21:43.798Z,5416
2016-08-10T05:22:42.848Z,5596
2016-08-10T05:24:41.724Z,6112
2016-08-10T05:25:41.936Z,6296
2016-08-10T05:26:41.739Z,6524
2016-08-10T05:27:41.714Z,6636
2016-08-10T05:28:41.707Z,6528
2016-08-10T05:29:41.713Z,6580
2016-08-10T05:30:41.702Z,6848
2016-08-10T05:31:42.409Z,7036
2016-08-10T05:32:42.010Z,7032
2016-08-10T05:33:41.710Z,7104
2016-08-10T05:34:43.085Z,7176
2016-08-10T05:35:41.691Z,7252
2016-08-10T05:36:41.687Z,7088
2016-08-10T05:37:41.687Z,6888
2016-08-10T05:38:41.690Z,6856
2016-08-10T05:39:41.679Z,6904
2016-08-10T05:40:41.691Z,6912
2016-08-10T05:41:41.676Z,6652
2016-08-10T05:42:41.671Z,6204
2016-08-10T05:43:41.670Z,5908
2016-08-10T05:44:41.676Z,5860
2016-08-10T05:45:41.659Z,5884
2016-08-10T05:46:41.655Z,5936
2016-08-10T05:47:41.656Z,6068
2016-08-10T05:48:41.658Z,6344
2016-08-10T05:49:41.648Z,6348
2016-08-10T05:50:41.647Z,6304
2016-08-10T05:51:41.651Z,6236
2016-08-10T05:52:41.648Z,6036
2016-08-10T05:53:41.640Z,5912
2016-08-10T05:54:41.643Z,5660
2016-08-10T05:55:42.346Z,5308
2016-08-10T05:56:41.632Z,5088
2016-08-10T05:57:41.632Z,5048
2016-08-10T05:58:41.630Z,5168
2016-08-10T05:59:43.036Z,5300
2016-08-10T06:00:41.631Z,5244
2016-08-10T06:01:42.318Z,5100
2016-08-10T06:02:41.631Z,5124
2016-08-10T06:03:41.616Z,5248
2016-08-10T06:04:41.611Z,5160
2016-08-10T06:05:41.619Z,5008
2016-08-10T06:06:57.682Z,5312
2016-08-10T06:07:56.529Z,5768
2016-08-10T06:08:44.563Z,6252
2016-08-10T06:10:41.602Z,6904
2016-08-10T06:11:41.957Z,7180
2016-08-10T06:12:41.897Z,7700
2016-08-10T06:13:41.601Z,8176
2016-08-10T06:14:41.597Z,8672
2016-08-10T06:15:41.836Z,9152
2016-08-10T06:17:11.423Z,10544
2016-08-10T06:18:26.388Z,12088
2016-08-10T06:19:41.582Z,13576
2016-08-10T06:20:42.632Z,14024
2016-08-10T06:21:41.572Z,14324
2016-08-10T06:22:41.573Z,14220
2016-08-10T06:23:41.595Z,13456
2016-08-10T06:24:41.573Z,12756
2016-08-10T06:25:41.576Z,12500
2016-08-10T06:26:41.569Z,12928
2016-08-10T06:27:42.109Z,13432
2016-08-10T06:28:44.076Z,14536
2016-08-10T06:29:42.241Z,16032
2016-08-10T06:30:42.347Z,17440
2016-08-10T06:31:42.045Z,18080
2016-08-10T06:32:42.619Z,18624
2016-08-10T06:33:41.564Z,19232
2016-08-10T06:34:41.554Z,20448
2016-08-10T06:35:41.551Z,20928
2016-08-10T06:37:42.894Z,21152
2016-08-10T06:38:41.555Z,21216
2016-08-10T06:39:42.030Z,21472
2016-08-10T06:40:42.162Z,21888
2016-08-10T06:41:41.544Z,24896
2016-08-10T06:42:41.569Z,33920
2016-08-10T06:43:41.553Z,36608
2016-08-10T06:44:41.548Z,48096
2016-08-10T06:45:41.551Z,32384
2016-08-10T06:46:41.545Z,35296
2016-08-10T06:47:41.553Z,21760
2016-08-10T06:48:41.562Z,19712
2016-08-10T06:49:41.555Z,18592
2016-08-10T06:50:41.565Z,17536
2016-08-10T06:52:41.558Z,16928
2016-08-10T06:53:41.571Z,17984
2016-08-10T06:54:41.566Z,19168
2016-08-10T06:55:41.571Z,21280
2016-08-10T06:56:41.564Z,23712
2016-08-10T06:57:41.583Z,27264
2016-08-10T06:58:41.584Z,26976
2016-08-10T06:59:41.571Z,26400
2016-08-10T07:00:41.578Z,26272
2016-08-10T07:01:41.576Z,31808
2016-08-10T07:02:41.583Z,30848
2016-08-10T07:03:41.585Z,26592
2016-08-10T07:04:41.589Z,25952
2016-08-10T07:05:41.597Z,25632
2016-08-10T07:06:41.616Z,25344
2016-08-10T07:07:41.599Z,23296
2016-08-10T07:08:41.951Z,22592
2016-08-10T07:09:42.306Z,23840
2016-08-10T07:10:41.606Z,22336
2016-08-10T07:11:41.608Z,20704
2016-08-10T07:12:41.616Z,20608
2016-08-10T07:13:41.619Z,20448
2016-08-10T07:14:41.625Z,21216
2016-08-10T07:15:41.631Z,22432
2016-08-10T07:16:41.640Z,29440
2016-08-10T07:17:41.643Z,30176
2016-08-10T07:18:41.641Z,31776
2016-08-10T07:19:41.647Z,31648
2016-08-10T07:20:41.648Z,30560
2016-08-10T07:21:41.646Z,29248
2016-08-10T07:22:41.663Z,28736
2016-08-10T07:23:41.666Z,29184
2016-08-10T07:24:56.784Z,28192
2016-08-10T07:25:43.832Z,29728
2016-08-10T07:26:42.875Z,33600
2016-08-10T07:28:57.125Z,41696
2016-08-10T07:29:42.085Z,43776
2016-08-10T07:30:41.699Z,43520
2016-08-10T07:31:42.709Z,45984
2016-08-10T07:32:41.708Z,50752
2016-08-10T07:33:56.627Z,54016
2016-08-10T07:35:42.624Z,61024
2016-08-10T07:36:57.054Z,67136
2016-08-10T07:37:41.751Z,66464
2016-08-10T07:38:56.668Z,65376
2016-08-10T07:39:42.050Z,65952
2016-08-10T07:40:42.108Z,64416
2016-08-10T07:41:41.771Z,63904
2016-08-10T07:42:41.792Z,66080
2016-08-10T07:43:41.790Z,69888
2016-08-10T07:44:41.797Z,72544
2016-08-10T07:46:44.032Z,74560
2016-08-10T07:47:43.344Z,36992
2016-08-10T07:48:44.156Z,65408
2016-08-10T07:49:41.849Z,38464
2016-08-10T07:50:41.860Z,50496
2016-08-10T07:51:41.865Z,67040
2016-08-10T07:52:41.944Z,47840
2016-08-10T07:53:41.890Z,62144
2016-08-10T07:54:41.906Z,62560
2016-08-10T07:55:43.435Z,49856
2016-08-10T07:56:42.923Z,15160
2016-08-10T07:57:44.175Z,13196
2016-08-10T07:58:41.943Z,14000
2016-08-10T07:59:41.955Z,16896
2016-08-10T08:00:42.673Z,22080
2016-08-10T08:01:41.978Z,24288
2016-08-10T08:02:42.000Z,16960
2016-08-10T08:03:42.001Z,16288
2016-08-10T08:04:42.001Z,16608
2016-08-10T08:05:43.399Z,17024
2016-08-10T08:06:42.923Z,18304
2016-08-10T08:07:42.048Z,20032
2016-08-10T08:08:42.045Z,22496
2016-08-10T08:09:42.065Z,25152
2016-08-10T08:10:42.074Z,50016
2016-08-10T08:11:42.076Z,66688
2016-08-10T08:12:42.081Z,61536
2016-08-10T08:13:42.084Z,63584
2016-08-10T08:14:42.093Z,55968
2016-08-10T08:15:42.108Z,55328
2016-08-10T08:16:42.118Z,59840
2016-08-10T08:17:42.122Z,63616
2016-08-10T08:18:42.138Z,67456
2016-08-10T08:19:42.837Z,52224
2016-08-10T08:20:42.842Z,65920
2016-08-10T08:21:42.164Z,43520
2016-08-10T08:22:42.168Z,49280
2016-08-10T08:23:42.175Z,27136
2016-08-10T08:24:42.185Z,21920
2016-08-10T08:25:42.189Z,18496
2016-08-10T08:26:42.206Z,18336
2016-08-10T08:27:42.223Z,19840
2016-08-10T08:28:42.223Z,20800
2016-08-10T08:29:42.233Z,21216
2016-08-10T08:30:42.233Z,21952
2016-08-10T08:31:42.243Z,22112
2016-08-10T08:32:42.261Z,23584
2016-08-10T08:33:42.266Z,24224
2016-08-10T08:34:42.286Z,23648
2016-08-10T08:35:42.279Z,24320
2016-08-10T08:36:42.287Z,26432
2016-08-10T08:37:42.295Z,27552
2016-08-10T08:38:42.312Z,26880
2016-08-10T08:39:42.324Z,26112
2016-08-10T08:40:42.321Z,25536
2016-08-10T08:41:42.330Z,24864
2016-08-10T08:42:42.339Z,24384
2016-08-10T08:43:57.352Z,24160
2016-08-10T08:44:58.017Z,24096
2016-08-10T08:45:42.353Z,23776
2016-08-10T08:47:43.113Z,24128
2016-08-10T08:48:42.367Z,25920
2016-08-10T08:49:42.428Z,25600
2016-08-10T08:50:42.375Z,25824
2016-08-10T08:51:42.396Z,24128
2016-08-10T08:53:42.947Z,23136
2016-08-10T08:54:42.804Z,22688
2016-08-10T08:55:57.326Z,24512
2016-08-10T08:56:42.414Z,25664
2016-08-10T08:57:42.931Z,26880
2016-08-10T08:58:42.428Z,26944
2016-08-10T08:59:42.438Z,26848
2016-08-10T09:00:42.434Z,27776
2016-08-10T09:01:42.445Z,30240
2016-08-10T09:02:42.445Z,29536
2016-08-10T09:03:42.458Z,27328
2016-08-10T09:04:44.814Z,25056
2016-08-10T09:05:44.549Z,24992
2016-08-10T09:06:43.956Z,25184
2016-08-10T09:07:44.036Z,24160
2016-08-10T09:08:43.878Z,24896
2016-08-10T09:09:43.165Z,25824
2016-08-10T09:10:42.487Z,25920
2016-08-10T09:11:42.492Z,25920
2016-08-10T09:12:42.522Z,25184
2016-08-10T09:13:44.010Z,23648
2016-08-10T09:14:44.170Z,23424
2016-08-10T09:15:43.994Z,22912
2016-08-10T09:16:44.503Z,22112
2016-08-10T09:17:42.523Z,22176
2016-08-10T09:18:42.540Z,21920
2016-08-10T09:19:42.853Z,20704
2016-08-10T09:20:42.537Z,18368
2016-08-10T09:21:42.598Z,17952
2016-08-10T09:22:42.549Z,16960
2016-08-10T09:23:42.569Z,15480
2016-08-10T09:24:42.549Z,14428
2016-08-10T09:25:42.566Z,14440
2016-08-10T09:26:42.575Z,14132
2016-08-10T09:27:42.578Z,16036
2016-08-10T09:28:42.583Z,18688
2016-08-10T09:29:42.594Z,20352
2016-08-10T09:30:42.592Z,21600
2016-08-10T09:31:42.590Z,22880
2016-08-10T09:32:42.588Z,23488
2016-08-10T09:33:42.600Z,24096
2016-08-10T09:34:42.601Z,25344
2016-08-10T09:35:42.625Z,26496
2016-08-10T09:36:42.616Z,27552
2016-08-10T09:37:42.620Z,27520
2016-08-10T09:38:42.620Z,26656
2016-08-10T09:40:42.623Z,20704
2016-08-10T09:41:42.631Z,17056
2016-08-10T09:42:42.630Z,14024
2016-08-10T09:43:42.631Z,12452
2016-08-10T09:44:42.652Z,12500
2016-08-10T09:45:42.643Z,13088
2016-08-10T09:46:42.654Z,13528
2016-08-10T09:47:42.652Z,16544
2016-08-10T09:48:42.666Z,21152
2016-08-10T09:49:42.764Z,25696
2016-08-10T09:50:42.666Z,29024
2016-08-10T09:51:42.676Z,30944
2016-08-10T09:52:42.678Z,32864
2016-08-10T09:53:42.683Z,34560
2016-08-10T09:55:42.687Z,33792
2016-08-10T09:56:42.699Z,32832
2016-08-10T09:57:42.697Z,32160
2016-08-10T09:58:42.703Z,31488
2016-08-10T09:59:42.705Z,30432
2016-08-10T10:00:42.701Z,28928
2016-08-10T10:01:44.829Z,27936
2016-08-10T10:02:57.635Z,26624
2016-08-10T10:03:58.789Z,24384
2016-08-10T10:04:43.176Z,23008
2016-08-10T10:05:43.628Z,23040
2016-08-10T10:06:43.141Z,24704
2016-08-10T10:07:42.740Z,25632
2016-08-10T10:08:42.808Z,26560
2016-08-10T10:09:42.755Z,26496
2016-08-10T10:11:43.817Z,24192
2016-08-10T10:12:42.922Z,23872
2016-08-10T10:13:57.690Z,25120
2016-08-10T10:14:42.779Z,25440
2016-08-10T10:15:42.781Z,25344
2016-08-10T10:16:42.784Z,25152
2016-08-10T10:17:42.791Z,25952
2016-08-10T10:18:42.794Z,27072
2016-08-10T10:19:42.806Z,28544
2016-08-10T10:20:42.807Z,29152
2016-08-10T10:21:42.827Z,29216
2016-08-10T10:22:44.777Z,29664
2016-08-10T10:23:45.763Z,29856
2016-08-10T10:24:42.831Z,29632
2016-08-10T10:25:44.599Z,29280
2016-08-10T10:26:42.835Z,29216
2016-08-10T10:27:42.850Z,29504
2016-08-10T10:28:43.337Z,29664
2016-08-10T10:29:42.866Z,29120
2016-08-10T10:30:42.866Z,29376
2016-08-10T10:31:44.220Z,29568
2016-08-10T10:32:45.119Z,29152
2016-08-10T10:33:45.780Z,28384
2016-08-10T10:34:44.701Z,27616
2016-08-10T10:35:42.890Z,27392
2016-08-10T10:36:43.020Z,26976
2016-08-10T10:37:42.899Z,26688
2016-08-10T10:38:43.099Z,26528
2016-08-10T10:39:42.919Z,26560
2016-08-10T10:40:42.931Z,26080
2016-08-10T10:41:42.928Z,25344
2016-08-10T10:42:42.929Z,24864
2016-08-10T10:43:42.944Z,24576
2016-08-10T10:44:42.946Z,23296
2016-08-10T10:45:42.948Z,20896
2016-08-10T10:46:42.953Z,19552
2016-08-10T10:47:42.968Z,19104
2016-08-10T10:48:42.974Z,18912
2016-08-10T10:49:42.983Z,19040
2016-08-10T10:50:42.985Z,19744
2016-08-10T10:51:42.984Z,20928
2016-08-10T10:52:42.998Z,21312
2016-08-10T10:53:43.003Z,20896
2016-08-10T10:54:43.002Z,20224
2016-08-10T10:55:43.017Z,20576
2016-08-10T10:56:43.009Z,20576
2016-08-10T10:57:43.026Z,20352
2016-08-10T10:58:43.029Z,20896
2016-08-10T10:59:43.043Z,20928
2016-08-10T11:00:43.039Z,19296
2016-08-10T11:01:43.043Z,16960
2016-08-10T11:02:43.047Z,15076
2016-08-10T11:03:43.058Z,13580
2016-08-10T11:04:43.062Z,13572
2016-08-10T11:05:43.053Z,14416
2016-08-10T11:06:43.079Z,15336
2016-08-10T11:07:43.076Z,15820
2016-08-10T11:08:43.087Z,16032
2016-08-10T11:09:43.087Z,15580
2016-08-10T11:10:43.090Z,14860
2016-08-10T11:11:43.096Z,14436
2016-08-10T11:12:43.098Z,14400
2016-08-10T11:13:43.102Z,14492
2016-08-10T11:14:43.104Z,14568
2016-08-10T11:15:43.113Z,14540
2016-08-10T11:16:43.114Z,14556
2016-08-10T11:17:43.118Z,14696
2016-08-10T11:18:43.135Z,14856
2016-08-10T11:19:44.480Z,14728
2016-08-10T11:20:43.281Z,14220
2016-08-10T11:22:43.542Z,13516
2016-08-10T11:24:43.141Z,13900
2016-08-10T11:25:43.855Z,13832
2016-08-10T11:26:43.144Z,14344
2016-08-10T11:27:43.200Z,15556
2016-08-10T11:29:43.957Z,18944
2016-08-10T11:32:43.170Z,20832
2016-08-10T11:33:43.374Z,20512
2016-08-10T11:34:43.181Z,19744
2016-08-10T11:35:43.887Z,18784
2016-08-10T11:36:43.182Z,18240
2016-08-10T11:37:43.182Z,18272
2016-08-10T11:38:43.196Z,19456
2016-08-10T11:39:43.189Z,21120
2016-08-10T11:40:44.781Z,22528
2016-08-10T11:41:46.453Z,23616
2016-08-10T11:42:44.142Z,24256
2016-08-10T11:43:43.605Z,24736
2016-08-10T11:44:44.898Z,25088
2016-08-10T11:45:43.214Z,25376
2016-08-10T11:46:43.212Z,25632
2016-08-10T11:47:43.212Z,26816
2016-08-10T11:48:43.228Z,27712
2016-08-10T11:49:43.951Z,28576
2016-08-10T11:50:45.571Z,29056
2016-08-10T11:51:43.675Z,29088
2016-08-10T11:52:43.566Z,29088
2016-08-10T11:53:43.237Z,29024
2016-08-10T11:54:43.429Z,29152
2016-08-10T11:55:43.382Z,29216
2016-08-10T11:56:43.243Z,29184
2016-08-10T11:57:43.240Z,29504
2016-08-10T11:58:43.256Z,30016
2016-08-10T11:59:43.262Z,30016
2016-08-10T12:00:43.269Z,29824
2016-08-10T12:01:43.265Z,29568
2016-08-10T12:02:43.267Z,29312
2016-08-10T12:03:43.289Z,28448
2016-08-10T12:04:43.287Z,27360
2016-08-10T12:05:43.292Z,26336
2016-08-10T12:06:43.290Z,25696
2016-08-10T12:07:43.294Z,25024
2016-08-10T12:08:43.447Z,23904
2016-08-10T12:09:43.319Z,22752
2016-08-10T12:10:43.315Z,22240
2016-08-10T12:11:43.316Z,23072
2016-08-10T12:12:43.315Z,24640
2016-08-10T12:13:43.327Z,25504
2016-08-10T12:14:43.338Z,25504
2016-08-10T12:15:43.344Z,25088
2016-08-10T12:16:43.337Z,24224
2016-08-10T12:17:43.351Z,23392
2016-08-10T12:18:43.355Z,22944
2016-08-10T12:19:44.077Z,22944
2016-08-10T12:20:43.359Z,22944
2016-08-10T12:21:43.365Z,23008
2016-08-10T12:22:43.372Z,23808
2016-08-10T12:23:43.378Z,25536
2016-08-10T12:24:43.399Z,25600
2016-08-10T12:25:43.387Z,24672
2016-08-10T12:26:43.398Z,22944
2016-08-10T12:27:43.405Z,21568
2016-08-10T12:28:43.413Z,21216
2016-08-10T12:29:43.427Z,21664
2016-08-10T12:30:43.423Z,22272
2016-08-10T12:31:43.416Z,22496
2016-08-10T12:32:43.433Z,22880
2016-08-10T12:33:43.429Z,23392
2016-08-10T12:34:43.437Z,23776
2016-08-10T12:35:43.450Z,23424
2016-08-10T12:36:43.453Z,22496
2016-08-10T12:38:59.281Z,20288
2016-08-10T12:39:45.277Z,20224
2016-08-10T12:40:43.672Z,20480
2016-08-10T12:41:58.701Z,19488
2016-08-10T12:42:43.489Z,18336
2016-08-10T12:43:43.490Z,16672
2016-08-10T12:44:43.487Z,15140
2016-08-10T12:45:43.498Z,14388
2016-08-10T12:47:43.850Z,15968
2016-08-10T12:48:44.364Z,17472
2016-08-10T12:49:43.518Z,18144
2016-08-10T12:50:43.971Z,18592
2016-08-10T12:51:44.171Z,18208
2016-08-10T12:52:43.542Z,18208
2016-08-10T12:53:43.533Z,17376
2016-08-10T12:54:43.545Z,16512
2016-08-10T12:55:43.550Z,16352
2016-08-10T12:56:43.546Z,15936
2016-08-10T12:57:43.549Z,14732
2016-08-10T12:58:45.030Z,12892
2016-08-10T12:59:45.178Z,11116
2016-08-10T13:00:45.443Z,10308
2016-08-10T13:01:45.515Z,10232
2016-08-10T13:02:45.207Z,10904
2016-08-10T13:03:43.753Z,12716
2016-08-10T13:04:43.897Z,15556
2016-08-10T13:05:43.589Z,18336
2016-08-10T13:06:43.583Z,20192
2016-08-10T13:08:46.051Z,23040
2016-08-10T13:09:44.681Z,23648
2016-08-10T13:10:45.222Z,23808
2016-08-10T13:11:45.391Z,23424
2016-08-10T13:12:44.183Z,22176
2016-08-10T13:13:43.630Z,19872
2016-08-10T13:14:43.619Z,18112
2016-08-10T13:15:43.621Z,16544
2016-08-10T13:16:43.639Z,15160
2016-08-10T13:17:43.649Z,14308
2016-08-10T13:18:43.634Z,14228
2016-08-10T13:19:43.634Z,14452
2016-08-10T13:20:43.641Z,14848
2016-08-10T13:21:43.646Z,15000
2016-08-10T13:22:43.644Z,14620
2016-08-10T13:23:43.645Z,14016
2016-08-10T13:24:43.658Z,13176
2016-08-10T13:25:43.666Z,12220
2016-08-10T13:26:43.673Z,11784
2016-08-10T13:27:43.669Z,12004
2016-08-10T13:28:43.673Z,12472
2016-08-10T13:29:43.694Z,13044
2016-08-10T13:30:43.679Z,14532
2016-08-10T13:31:43.680Z,14584
2016-08-10T13:32:43.688Z,12988
2016-08-10T13:33:43.685Z,11880
2016-08-10T13:34:43.701Z,11688
2016-08-10T13:35:43.692Z,11792
2016-08-10T13:36:43.693Z,12756
2016-08-10T13:37:43.705Z,13868
2016-08-10T13:38:43.698Z,15424
2016-08-10T13:39:43.716Z,16320
2016-08-10T13:40:43.708Z,17376
2016-08-10T13:41:43.712Z,18240
2016-08-10T13:42:43.718Z,18816
2016-08-10T13:43:43.712Z,18784
2016-08-10T13:44:43.715Z,18208
2016-08-10T13:45:43.726Z,16864
2016-08-10T13:46:43.724Z,17952
2016-08-10T13:47:43.733Z,17408
2016-08-10T13:48:43.738Z,16064
2016-08-10T13:49:43.732Z,15968
2016-08-10T13:50:43.732Z,16768
2016-08-10T13:51:43.740Z,16288
2016-08-10T13:52:43.743Z,15500
2016-08-10T13:53:43.751Z,15864
2016-08-10T13:54:43.750Z,15556
2016-08-10T13:55:46.248Z,14624
2016-08-10T13:56:44.959Z,14384
2016-08-10T13:57:43.906Z,15628
2016-08-10T13:58:44.667Z,16192
2016-08-10T13:59:44.009Z,16128
2016-08-10T14:00:44.228Z,15840
2016-08-10T14:01:43.768Z,15536
2016-08-10T14:02:43.770Z,15640
2016-08-10T14:03:43.782Z,16256
2016-08-10T14:04:44.238Z,17696
2016-08-10T14:05:44.428Z,19168
2016-08-10T14:06:43.935Z,20512
2016-08-10T14:07:44.741Z,21408